Monday, September 25, 2017, 5:54 AM EDT
Back to Local

KGSB, Seymour-johnson Air Force Base

Location: Goldsboro, NC, United States Lat: 35.333
Local Time: 5:54 AM EDT ( 9:54 GMT) Lon: -77.967
Time Zone: US/Eastern Elev: 108 ft

Show me the last for .
Show Decoded

2017-09-25 04:58 METAR KGSB 250858Z AUTO 02006KT 10SM CLR 19/19 A2994 RMK AO2 SLP141 T01940194
                 58003 $ =
2017-09-25 03:58 METAR KGSB 250758Z AUTO 03005KT 10SM CLR 19/19 A2995 RMK AO2 SLP144 T01930193 $
                 =
2017-09-25 02:58 METAR KGSB 250658Z AUTO 04006KT 10SM CLR 19/19 A2995 RMK AO2 SLP144 T01920190 $
                 =
2017-09-25 01:58 METAR KGSB 250558Z AUTO 02006KT 10SM CLR 20/19 A2995 RMK AO2 SLP144 T02000187
                 10247 20199 57006 $ =
2017-09-25 00:58 METAR KGSB 250458Z AUTO 02006KT 10SM CLR 21/19 A2996 RMK AO2 SLP148 T02070187
                 402940194 $ =
2017-09-24 23:58 METAR KGSB 250358Z AUTO 03006KT 10SM CLR 22/19 A2997 RMK AO2 SLP151 T02150187 $
                 =
2017-09-24 22:58 METAR KGSB 250258Z AUTO 03007KT 10SM CLR 22/18 A2997 RMK AO2 SLP151 T02220181
                 50003 $ =
2017-09-24 21:58 METAR KGSB 250158Z AUTO 03007KT 10SM CLR 23/19 A2998 RMK AO2 SLP154 T02310191 $
                 =
2017-09-24 20:58 METAR KGSB 250058Z AUTO 04008KT 10SM CLR 24/19 A2997 RMK AO2 SLP151 T02420186 $
                 =
2017-09-24 19:58 METAR KGSB 242358Z AUTO 02005KT 10SM CLR 25/20 A2996 RMK AO2 SLP148 T02490196
                 10294 20249 53002 $ =
2017-09-24 18:58 METAR KGSB 242258Z AUTO 04006KT 10SM CLR 26/20 A2996 RMK AO2 SLP148 T02610201 $
                 =
2017-09-24 17:58 METAR KGSB 242158Z AUTO 03007KT 10SM CLR 28/19 A2995 RMK AO2 SLP144 T02750192 $
                 =
2017-09-24 16:58 METAR KGSB 242058Z AUTO 01008KT 10SM CLR 29/19 A2995 RMK AO2 SLP144 T02860186
                 57018 $ =
2017-09-24 15:58 METAR KGSB 241958Z AUTO 04011G14KT 10SM CLR 29/19 A2997 RMK AO2 SLP151 T02900186
                 $ =
2017-09-24 14:58 METAR KGSB 241858Z AUTO 05012KT 10SM CLR 29/19 A2998 RMK AO2 SLP154 T02910188 $
                 =
2017-09-24 13:58 METAR KGSB 241758Z AUTO 02009KT 10SM CLR 29/20 A3001 RMK AO2 SLP164 T02910201
                 10291 20206 57018 $ =
2017-09-24 12:58 METAR KGSB 241658Z AUTO 06008KT 10SM CLR 28/21 A3004 RMK AO2 SLP175 T02820206 $
                 =
2017-09-24 11:58 METAR KGSB 241558Z AUTO 05007KT 10SM CLR 27/22 A3005 RMK AO2 SLP178 T02710219 $
                 =
2017-09-24 10:58 METAR KGSB 241458Z AUTO 05011KT 10SM CLR 26/23 A3006 RMK AO2 SLP181 T02590228
                 52003 $ =
2017-09-24 09:58 METAR KGSB 241358Z AUTO 05006KT 10SM CLR 24/23 A3006 RMK AO2 SLP181 T02380233 $
                 =
2017-09-24 08:58 METAR KGSB 241258Z AUTO 04005KT 10SM CLR 22/22 A3006 RMK AO2 SLP181 T02210221 $
                 =
2017-09-24 07:58 METAR KGSB 241158Z AUTO 00000KT 10SM CLR 21/21 A3005 RMK AO2 SLP178 T02060206
                 10206 20194 53010 $ =
2017-09-24 07:49 METAR KGSB 241149Z AUTO 00000KT 10SM CLR 20/20 A3005 RMK AO2 SLP178 =
2017-09-24 07:19 METAR KGSB 241119Z AUTO 00000KT 9SM R08/5500FT CLR 20/20 A3004 RMK AO2 SLP175 =
2017-09-24 06:58 METAR KGSB 241058Z AUTO 00000KT 10SM CLR 20/20 A3003 RMK AO2 SLP171 T01990199 $
                 =
2017-09-24 05:58 METAR KGSB 240958Z AUTO 00000KT 10SM CLR 20/20 A3002 RMK AO2 SLP168 T02010201 $
                 =

Support USWX by starting your Amazon purchase here.